BAW247 EGLL-SBGR
Flight info
| Callsign | BAW247 |
|---|---|
| Flight time | N/A |
| Altitude | 33000 |
| Route | GASGU N866 SAM N621 MARUK M195 LORKU DCT BALDA DCT ABUPI DCT BEXAL/N0490F350 DCT SAMAR DCT YUSME DCT LIMAL/N0495F360 N873 IPERA UN873 SADBA/N0493F380 UN873 NTL DCT OPTUR DCT ASGIK UZ21 KORKA/N0486F400 UZ21 VUNOX SANPA1A |
| Aircraft | A35K/H-SBDE1E2E3GHIJ1J3J4J5J6M1M2P2RWXYZ/LB1D1 |
Departure
| Time | 2026-05-05 11:11 |
|---|---|
| Airport | London Heathrow Airport (EGLL) |
Arrival
| Time | N/A |
|---|---|
| Airport | São Paulo/Guarulhos–Governor André Franco Montoro International Airport (SBGR) |
| Time | Latitude | Longitude | Altitude | Speed | Heading |
|---|---|---|---|---|---|
| 2026-05-05 10:27 | 51.47315 | -0.46409 | 92 ft | 0 kts | 24° |
| 2026-05-05 10:56 | 51.47312 | -0.46411 | 92 ft | 3 kts | 24° |
| 2026-05-05 10:57 | 51.47287 | -0.46429 | 120 ft | 4 kts | 24° |
| 2026-05-05 10:57 | 51.47268 | -0.46443 | 89 ft | 4 kts | 8° |
| 2026-05-05 10:57 | 51.47247 | -0.46432 | 90 ft | 4 kts | 324° |
| 2026-05-05 10:57 | 51.47228 | -0.46411 | 90 ft | 4 kts | 326° |
| 2026-05-05 10:58 | 51.47205 | -0.46386 | 90 ft | 4 kts | 326° |
| 2026-05-05 10:58 | 51.47197 | -0.46377 | 90 ft | 0 kts | 326° |
| 2026-05-05 11:02 | 51.47203 | -0.46384 | 92 ft | 3 kts | 326° |
| 2026-05-05 11:02 | 51.47230 | -0.46430 | 96 ft | 8 kts | 301° |
| 2026-05-05 11:02 | 51.47239 | -0.46534 | 92 ft | 10 kts | 270° |
| 2026-05-05 11:02 | 51.47238 | -0.46662 | 92 ft | 12 kts | 269° |
| 2026-05-05 11:03 | 51.47237 | -0.46797 | 94 ft | 7 kts | 268° |
| 2026-05-05 11:03 | 51.47208 | -0.46855 | 96 ft | 7 kts | 201° |
| 2026-05-05 11:03 | 51.47173 | -0.46862 | 94 ft | 8 kts | 182° |
| 2026-05-05 11:03 | 51.47112 | -0.46864 | 93 ft | 10 kts | 180° |
| 2026-05-05 11:04 | 51.47036 | -0.46864 | 92 ft | 12 kts | 180° |
| 2026-05-05 11:04 | 51.46951 | -0.46863 | 94 ft | 13 kts | 180° |
| 2026-05-05 11:04 | 51.46856 | -0.46862 | 94 ft | 14 kts | 179° |
| 2026-05-05 11:04 | 51.46772 | -0.46865 | 96 ft | 8 kts | 200° |
| 2026-05-05 11:05 | 51.46750 | -0.46942 | 96 ft | 9 kts | 260° |
| 2026-05-05 11:05 | 51.46747 | -0.47056 | 96 ft | 11 kts | 270° |
| 2026-05-05 11:05 | 51.46745 | -0.47240 | 95 ft | 13 kts | 269° |
| 2026-05-05 11:05 | 51.46745 | -0.47343 | 92 ft | 15 kts | 270° |
| 2026-05-05 11:06 | 51.46745 | -0.47524 | 94 ft | 17 kts | 270° |
| 2026-05-05 11:06 | 51.46745 | -0.47721 | 94 ft | 18 kts | 270° |
| 2026-05-05 11:06 | 51.46744 | -0.47924 | 92 ft | 18 kts | 269° |
| 2026-05-05 11:06 | 51.46743 | -0.48059 | 93 ft | 6 kts | 269° |
| 2026-05-05 11:07 | 51.46743 | -0.48071 | 92 ft | 0 kts | 269° |
| 2026-05-05 11:07 | 51.46743 | -0.48072 | 92 ft | 0 kts | 269° |
| 2026-05-05 11:08 | 51.46743 | -0.48099 | 94 ft | 6 kts | 269° |
| 2026-05-05 11:08 | 51.46742 | -0.48228 | 93 ft | 17 kts | 269° |
| 2026-05-05 11:08 | 51.46741 | -0.48446 | 96 ft | 20 kts | 270° |
| 2026-05-05 11:08 | 51.46742 | -0.48652 | 92 ft | 10 kts | 270° |
| 2026-05-05 11:09 | 51.46711 | -0.48737 | 96 ft | 9 kts | 202° |
| 2026-05-05 11:09 | 51.46646 | -0.48750 | 92 ft | 10 kts | 189° |
| 2026-05-05 11:09 | 51.46572 | -0.48781 | 95 ft | 12 kts | 194° |
| 2026-05-05 11:09 | 51.46496 | -0.48747 | 96 ft | 12 kts | 131° |
| 2026-05-05 11:10 | 51.46479 | -0.48617 | 96 ft | 13 kts | 91° |
| 2026-05-05 11:10 | 51.46480 | -0.48429 | 94 ft | 30 kts | 90° |
| 2026-05-05 11:10 | 51.46484 | -0.47747 | 95 ft | 95 kts | 90° |
| 2026-05-05 11:10 | 51.46485 | -0.46341 | 97 ft | 156 kts | 90° |
| 2026-05-05 11:11 | 51.46507 | -0.44436 | 559 ft | 170 kts | 85° |
| 2026-05-05 11:11 | 51.46504 | -0.42564 | 1382 ft | 168 kts | 93° |
| 2026-05-05 11:11 | 51.46123 | -0.40763 | 1847 ft | 180 kts | 117° |
| 2026-05-05 11:11 | 51.45327 | -0.39084 | 2087 ft | 200 kts | 132° |
| 2026-05-05 11:12 | 51.44157 | -0.37680 | 2350 ft | 220 kts | 150° |
| 2026-05-05 11:12 | 51.42645 | -0.36909 | 2653 ft | 237 kts | 172° |
| 2026-05-05 11:12 | 51.40959 | -0.37080 | 3002 ft | 252 kts | 193° |
| 2026-05-05 11:12 | 51.39222 | -0.37911 | 3366 ft | 267 kts | 198° |
| 2026-05-05 11:13 | 51.37448 | -0.38855 | 3965 ft | 270 kts | 197° |
| 2026-05-05 11:13 | 51.35672 | -0.39878 | 4580 ft | 273 kts | 201° |
| 2026-05-05 11:13 | 51.33973 | -0.41271 | 5239 ft | 275 kts | 211° |
| 2026-05-05 11:13 | 51.32433 | -0.43109 | 5795 ft | 279 kts | 221° |
| 2026-05-05 11:14 | 51.31107 | -0.45357 | 6001 ft | 277 kts | 232° |
| 2026-05-05 11:14 | 51.30023 | -0.47907 | 6013 ft | 279 kts | 243° |
| 2026-05-05 11:14 | 51.29340 | -0.50799 | 6058 ft | 277 kts | 255° |
| 2026-05-05 11:14 | 51.28820 | -0.53784 | 6309 ft | 280 kts | 255° |
| 2026-05-05 11:15 | 51.28301 | -0.56783 | 7013 ft | 279 kts | 255° |
| 2026-05-05 11:15 | 51.27743 | -0.59719 | 7694 ft | 281 kts | 249° |
| 2026-05-05 11:15 | 51.26865 | -0.62563 | 8402 ft | 283 kts | 240° |
| 2026-05-05 11:15 | 51.25844 | -0.65281 | 9066 ft | 287 kts | 238° |
| 2026-05-05 11:16 | 51.24740 | -0.67958 | 9758 ft | 291 kts | 236° |
| 2026-05-05 11:16 | 51.23583 | -0.70628 | 10307 ft | 299 kts | 235° |
| 2026-05-05 11:16 | 51.22350 | -0.73423 | 10609 ft | 315 kts | 235° |
| 2026-05-05 11:16 | 51.21069 | -0.76315 | 10935 ft | 331 kts | 235° |
| 2026-05-05 11:17 | 51.19710 | -0.79398 | 11244 ft | 347 kts | 235° |
| 2026-05-05 11:17 | 51.18297 | -0.82623 | 11534 ft | 362 kts | 235° |
| 2026-05-05 11:17 | 51.16831 | -0.85983 | 11822 ft | 376 kts | 235° |
| 2026-05-05 11:17 | 51.15324 | -0.89443 | 12186 ft | 387 kts | 235° |
| 2026-05-05 11:18 | 51.13770 | -0.93010 | 12617 ft | 395 kts | 235° |
| 2026-05-05 11:18 | 51.12193 | -0.96625 | 13206 ft | 398 kts | 236° |
| 2026-05-05 11:18 | 51.10608 | -1.00254 | 13857 ft | 401 kts | 236° |
| 2026-05-05 11:18 | 51.09005 | -1.03918 | 14362 ft | 405 kts | 236° |
| 2026-05-05 11:19 | 51.07403 | -1.07573 | 14782 ft | 408 kts | 235° |
| 2026-05-05 11:19 | 51.05779 | -1.11271 | 14966 ft | 407 kts | 235° |
| 2026-05-05 11:19 | 51.04156 | -1.14959 | 14993 ft | 408 kts | 235° |
| 2026-05-05 11:19 | 51.02524 | -1.18665 | 14990 ft | 409 kts | 235° |
| 2026-05-05 11:20 | 51.00893 | -1.22362 | 14990 ft | 409 kts | 235° |
| 2026-05-05 11:20 | 50.99260 | -1.26060 | 14992 ft | 409 kts | 235° |
| 2026-05-05 11:20 | 50.97628 | -1.29749 | 14994 ft | 409 kts | 235° |
| 2026-05-05 11:20 | 50.95838 | -1.33269 | 14991 ft | 409 kts | 226° |
| 2026-05-05 11:21 | 50.93711 | -1.36238 | 14996 ft | 408 kts | 218° |
| 2026-05-05 11:21 | 50.91421 | -1.38931 | 14994 ft | 409 kts | 215° |
| 2026-05-05 11:21 | 50.89063 | -1.41466 | 14992 ft | 409 kts | 213° |
| 2026-05-05 11:21 | 50.86674 | -1.43921 | 14997 ft | 409 kts | 212° |
| 2026-05-05 11:22 | 50.84305 | -1.46319 | 14991 ft | 410 kts | 212° |
| 2026-05-05 11:22 | 50.81894 | -1.48760 | 14987 ft | 411 kts | 212° |
| 2026-05-05 11:22 | 50.79496 | -1.51202 | 14987 ft | 410 kts | 213° |
| 2026-05-05 11:22 | 50.77099 | -1.53660 | 14986 ft | 411 kts | 213° |
| 2026-05-05 11:23 | 50.74701 | -1.56129 | 14986 ft | 411 kts | 213° |
| 2026-05-05 11:23 | 50.72307 | -1.58600 | 14988 ft | 411 kts | 213° |
| 2026-05-05 11:23 | 50.69918 | -1.61066 | 14988 ft | 411 kts | 213° |
| 2026-05-05 11:23 | 50.67523 | -1.63536 | 14988 ft | 411 kts | 213° |
| 2026-05-05 11:24 | 50.65132 | -1.66000 | 14987 ft | 410 kts | 213° |
| 2026-05-05 11:24 | 50.62736 | -1.68464 | 14992 ft | 411 kts | 213° |
| 2026-05-05 11:24 | 50.60337 | -1.70928 | 14978 ft | 412 kts | 213° |
| 2026-05-05 11:24 | 50.57939 | -1.73386 | 14973 ft | 411 kts | 213° |
| 2026-05-05 11:25 | 50.55540 | -1.75843 | 14974 ft | 412 kts | 212° |
| 2026-05-05 11:25 | 50.53137 | -1.78301 | 14973 ft | 412 kts | 212° |
| 2026-05-05 11:25 | 50.50734 | -1.80759 | 14974 ft | 411 kts | 212° |
| 2026-05-05 11:25 | 50.48331 | -1.83213 | 14971 ft | 412 kts | 212° |
| 2026-05-05 11:26 | 50.45954 | -1.85634 | 14972 ft | 412 kts | 212° |
| 2026-05-05 11:26 | 50.43546 | -1.88082 | 14973 ft | 412 kts | 212° |
| 2026-05-05 11:26 | 50.41143 | -1.90523 | 14973 ft | 412 kts | 212° |
| 2026-05-05 11:26 | 50.38724 | -1.92977 | 15055 ft | 417 kts | 212° |
| 2026-05-05 11:27 | 50.36289 | -1.95446 | 15719 ft | 414 kts | 212° |
| 2026-05-05 11:27 | 50.33863 | -1.97903 | 16367 ft | 416 kts | 212° |
| 2026-05-05 11:27 | 50.31424 | -2.00371 | 16883 ft | 419 kts | 212° |
| 2026-05-05 11:27 | 50.28972 | -2.02847 | 17517 ft | 419 kts | 212° |
| 2026-05-05 11:28 | 50.26512 | -2.05329 | 18103 ft | 422 kts | 212° |
| 2026-05-05 11:28 | 50.24037 | -2.07824 | 18595 ft | 425 kts | 212° |
| 2026-05-05 11:28 | 50.21536 | -2.10314 | 19158 ft | 426 kts | 211° |
| 2026-05-05 11:28 | 50.19020 | -2.12771 | 19690 ft | 428 kts | 211° |
| 2026-05-05 11:29 | 50.16485 | -2.15222 | 20228 ft | 431 kts | 210° |
| 2026-05-05 11:29 | 50.13919 | -2.17696 | 20669 ft | 435 kts | 210° |
| 2026-05-05 11:29 | 50.11339 | -2.20187 | 21222 ft | 437 kts | 210° |
| 2026-05-05 11:29 | 50.08753 | -2.22687 | 21768 ft | 439 kts | 210° |
| 2026-05-05 11:30 | 50.06145 | -2.25209 | 22294 ft | 442 kts | 210° |
| 2026-05-05 11:30 | 50.03526 | -2.27744 | 22840 ft | 444 kts | 210° |
| 2026-05-05 11:30 | 50.00897 | -2.30283 | 23438 ft | 444 kts | 210° |
| 2026-05-05 11:30 | 49.98262 | -2.32827 | 23899 ft | 447 kts | 210° |
| 2026-05-05 11:31 | 49.95611 | -2.35372 | 24365 ft | 448 kts | 209° |
| 2026-05-05 11:31 | 49.92856 | -2.37631 | 24784 ft | 450 kts | 204° |
| 2026-05-05 11:31 | 49.90006 | -2.39681 | 25170 ft | 452 kts | 202° |
| 2026-05-05 11:31 | 49.87152 | -2.41631 | 25628 ft | 454 kts | 201° |
| 2026-05-05 11:32 | 49.84241 | -2.43563 | 26069 ft | 456 kts | 201° |
| 2026-05-05 11:32 | 49.81312 | -2.45485 | 26510 ft | 457 kts | 201° |
| 2026-05-05 11:32 | 49.78376 | -2.47407 | 26957 ft | 459 kts | 201° |
| 2026-05-05 11:32 | 49.75429 | -2.49340 | 27397 ft | 460 kts | 201° |
| 2026-05-05 11:33 | 49.72470 | -2.51285 | 27831 ft | 462 kts | 201° |
| 2026-05-05 11:33 | 49.69502 | -2.53240 | 28195 ft | 465 kts | 200° |
| 2026-05-05 11:33 | 49.66507 | -2.55212 | 28537 ft | 468 kts | 200° |
| 2026-05-05 11:33 | 49.63515 | -2.57183 | 28926 ft | 469 kts | 200° |
| 2026-05-05 11:34 | 49.60502 | -2.59165 | 29299 ft | 471 kts | 200° |
| 2026-05-05 11:34 | 49.57486 | -2.61147 | 29697 ft | 471 kts | 200° |
| 2026-05-05 11:34 | 49.54514 | -2.63099 | 30202 ft | 468 kts | 200° |
| 2026-05-05 11:34 | 49.51517 | -2.65064 | 30561 ft | 468 kts | 200° |
| 2026-05-05 11:35 | 49.48513 | -2.67031 | 30841 ft | 470 kts | 200° |
| 2026-05-05 11:35 | 49.45485 | -2.69009 | 31057 ft | 473 kts | 200° |
| 2026-05-05 11:35 | 49.42452 | -2.70988 | 31349 ft | 473 kts | 200° |
| 2026-05-05 11:35 | 49.39420 | -2.72963 | 31679 ft | 473 kts | 201° |
| 2026-05-05 11:36 | 49.36393 | -2.74932 | 31978 ft | 473 kts | 201° |
| 2026-05-05 11:36 | 49.33354 | -2.76907 | 32247 ft | 474 kts | 201° |
| 2026-05-05 11:36 | 49.30311 | -2.78882 | 32514 ft | 474 kts | 201° |
| 2026-05-05 11:36 | 49.27272 | -2.80851 | 32798 ft | 474 kts | 201° |
| 2026-05-05 11:37 | 49.24227 | -2.82821 | 32972 ft | 477 kts | 201° |
| 2026-05-05 11:37 | 49.18112 | -2.86771 | 32964 ft | 481 kts | 201° |
| 2026-05-05 11:38 | 49.11940 | -2.90748 | 32978 ft | 481 kts | 201° |
| 2026-05-05 11:38 | 49.05774 | -2.94709 | 32975 ft | 480 kts | 201° |
| 2026-05-05 11:39 | 48.99621 | -2.98657 | 32962 ft | 479 kts | 200° |
| 2026-05-05 11:39 | 48.93468 | -3.02585 | 32966 ft | 478 kts | 200° |
| 2026-05-05 11:40 | 48.87360 | -3.06474 | 32966 ft | 478 kts | 200° |
| 2026-05-05 11:40 | 48.81187 | -3.10395 | 32966 ft | 483 kts | 201° |
| 2026-05-05 11:41 | 48.74970 | -3.14336 | 32964 ft | 484 kts | 201° |
| 2026-05-05 11:41 | 48.68755 | -3.18266 | 32965 ft | 484 kts | 201° |
| 2026-05-05 11:42 | 48.62543 | -3.22183 | 32965 ft | 484 kts | 201° |
| 2026-05-05 11:42 | 48.56366 | -3.26068 | 32963 ft | 482 kts | 200° |
| 2026-05-05 11:43 | 48.50169 | -3.29954 | 32957 ft | 481 kts | 200° |
| 2026-05-05 11:43 | 48.43978 | -3.33824 | 32957 ft | 481 kts | 200° |
| 2026-05-05 11:44 | 48.37790 | -3.37684 | 32966 ft | 481 kts | 199° |
| 2026-05-05 11:44 | 48.31638 | -3.41513 | 32961 ft | 482 kts | 199° |
| 2026-05-05 11:45 | 48.25428 | -3.45363 | 32959 ft | 484 kts | 200° |
| 2026-05-05 11:45 | 48.19192 | -3.49222 | 32959 ft | 485 kts | 200° |
| 2026-05-05 11:46 | 48.12940 | -3.53083 | 32956 ft | 486 kts | 199° |
| 2026-05-05 11:46 | 48.06717 | -3.56914 | 32957 ft | 486 kts | 199° |
| 2026-05-05 11:47 | 48.00455 | -3.60759 | 32957 ft | 486 kts | 199° |
| 2026-05-05 11:47 | 47.94184 | -3.64600 | 32965 ft | 487 kts | 199° |
| 2026-05-05 11:48 | 47.84743 | -3.70359 | 32951 ft | 489 kts | 199° |
| 2026-05-05 11:48 | 47.78443 | -3.74191 | 32943 ft | 489 kts | 199° |
| 2026-05-05 11:49 | 47.73203 | -3.77371 | 32962 ft | 489 kts | 199° |
| 2026-05-05 11:49 | 47.65885 | -3.81799 | 32958 ft | 492 kts | 199° |
| 2026-05-05 11:50 | 47.60557 | -3.85015 | 32955 ft | 492 kts | 199° |
| 2026-05-05 11:50 | 47.54248 | -3.88814 | 32958 ft | 492 kts | 199° |
| 2026-05-05 11:51 | 47.47901 | -3.92627 | 32957 ft | 493 kts | 199° |
| 2026-05-05 11:51 | 47.41527 | -3.96447 | 32958 ft | 494 kts | 199° |
| 2026-05-05 11:52 | 47.35155 | -4.00255 | 32960 ft | 494 kts | 199° |
| 2026-05-05 11:52 | 47.28767 | -4.04062 | 32962 ft | 494 kts | 199° |
| 2026-05-05 11:53 | 47.22374 | -4.07863 | 32960 ft | 495 kts | 199° |
| 2026-05-05 11:53 | 47.15982 | -4.11653 | 32960 ft | 495 kts | 199° |
| 2026-05-05 11:54 | 47.09625 | -4.15412 | 32975 ft | 497 kts | 200° |
| 2026-05-05 11:54 | 47.03193 | -4.19207 | 32966 ft | 498 kts | 200° |
| 2026-05-05 11:55 | 46.96757 | -4.22993 | 32968 ft | 498 kts | 200° |
| 2026-05-05 11:55 | 46.90330 | -4.26764 | 32966 ft | 498 kts | 200° |
| 2026-05-05 11:56 | 46.83893 | -4.30529 | 32964 ft | 498 kts | 200° |
| 2026-05-05 11:56 | 46.77454 | -4.34287 | 32965 ft | 499 kts | 200° |
| 2026-05-05 11:57 | 46.71050 | -4.38017 | 32964 ft | 499 kts | 200° |
| 2026-05-05 11:57 | 46.64603 | -4.41761 | 32967 ft | 499 kts | 200° |
| 2026-05-05 11:58 | 46.58161 | -4.45493 | 32967 ft | 499 kts | 200° |
| 2026-05-05 11:58 | 46.51714 | -4.49217 | 32967 ft | 499 kts | 200° |
| 2026-05-05 11:59 | 46.45256 | -4.52938 | 32986 ft | 498 kts | 200° |
| 2026-05-05 11:59 | 46.42034 | -4.54790 | 33285 ft | 496 kts | 200° |
| 2026-05-05 11:59 | 46.38840 | -4.56625 | 33713 ft | 493 kts | 200° |
| 2026-05-05 12:00 | 46.35662 | -4.58448 | 34065 ft | 490 kts | 200° |
| 2026-05-05 12:00 | 46.32492 | -4.60265 | 34261 ft | 491 kts | 200° |
| 2026-05-05 12:00 | 46.29353 | -4.62061 | 34408 ft | 492 kts | 200° |
| 2026-05-05 12:00 | 46.26170 | -4.63878 | 34629 ft | 491 kts | 201° |
| 2026-05-05 12:01 | 46.22987 | -4.65695 | 34808 ft | 491 kts | 201° |
| 2026-05-05 12:01 | 46.19812 | -4.67505 | 34957 ft | 492 kts | 201° |
| 2026-05-05 12:01 | 46.13392 | -4.71159 | 34979 ft | 499 kts | 201° |
| 2026-05-05 12:02 | 46.06935 | -4.74825 | 34978 ft | 498 kts | 200° |
| 2026-05-05 12:02 | 46.00483 | -4.78478 | 34980 ft | 499 kts | 201° |
| 2026-05-05 12:03 | 45.93999 | -4.82140 | 34980 ft | 500 kts | 201° |
| 2026-05-05 12:03 | 45.87514 | -4.85793 | 34980 ft | 501 kts | 201° |
| 2026-05-05 12:04 | 45.81060 | -4.89420 | 34986 ft | 501 kts | 201° |
| 2026-05-05 12:04 | 45.74569 | -4.93058 | 34985 ft | 500 kts | 201° |
| 2026-05-05 12:05 | 45.68077 | -4.96689 | 34986 ft | 500 kts | 201° |
| 2026-05-05 12:05 | 45.61623 | -5.00289 | 34986 ft | 501 kts | 201° |
| 2026-05-05 12:06 | 45.55130 | -5.03901 | 34989 ft | 501 kts | 201° |
| 2026-05-05 12:06 | 45.48621 | -5.07513 | 34992 ft | 502 kts | 201° |
| 2026-05-05 12:07 | 45.42093 | -5.11127 | 34989 ft | 503 kts | 202° |
| 2026-05-05 12:07 | 45.35561 | -5.14735 | 34995 ft | 503 kts | 201° |
| 2026-05-05 12:08 | 45.29031 | -5.18332 | 34997 ft | 503 kts | 201° |
| 2026-05-05 12:08 | 45.22509 | -5.21915 | 34995 ft | 502 kts | 202° |
| 2026-05-05 12:09 | 45.16032 | -5.25465 | 35001 ft | 502 kts | 202° |
| 2026-05-05 12:09 | 45.09510 | -5.29032 | 35002 ft | 502 kts | 202° |
| 2026-05-05 12:10 | 45.02986 | -5.32590 | 35000 ft | 501 kts | 202° |
| 2026-05-05 12:10 | 44.96470 | -5.36136 | 35000 ft | 501 kts | 202° |
| 2026-05-05 12:11 | 44.89947 | -5.39677 | 35005 ft | 503 kts | 202° |
| 2026-05-05 12:11 | 44.83445 | -5.43197 | 35003 ft | 503 kts | 202° |
| 2026-05-05 12:12 | 44.76912 | -5.46726 | 35004 ft | 502 kts | 202° |
| 2026-05-05 12:12 | 44.70378 | -5.50248 | 35007 ft | 502 kts | 202° |
| 2026-05-05 12:13 | 44.63891 | -5.53735 | 35008 ft | 502 kts | 202° |
| 2026-05-05 12:13 | 44.57375 | -5.57320 | 35008 ft | 502 kts | 204° |
| 2026-05-05 12:14 | 44.50997 | -5.61302 | 35007 ft | 502 kts | 206° |
| 2026-05-05 12:14 | 44.44640 | -5.65345 | 35015 ft | 501 kts | 205° |
| 2026-05-05 12:15 | 44.38272 | -5.69317 | 35015 ft | 501 kts | 205° |
| 2026-05-05 12:15 | 44.31879 | -5.73248 | 35015 ft | 502 kts | 205° |
| 2026-05-05 12:16 | 44.25478 | -5.77164 | 35010 ft | 502 kts | 205° |
| 2026-05-05 12:16 | 44.19089 | -5.81064 | 35020 ft | 501 kts | 205° |
| 2026-05-05 12:17 | 44.12706 | -5.84954 | 35019 ft | 501 kts | 205° |
| 2026-05-05 12:17 | 44.06357 | -5.88816 | 35020 ft | 501 kts | 205° |
| 2026-05-05 12:18 | 43.99981 | -5.92684 | 35019 ft | 500 kts | 205° |
| 2026-05-05 12:18 | 43.93606 | -5.96543 | 35030 ft | 500 kts | 205° |
| 2026-05-05 12:19 | 43.87227 | -6.00396 | 35030 ft | 500 kts | 205° |
| 2026-05-05 12:19 | 43.80851 | -6.04236 | 35032 ft | 499 kts | 206° |
| 2026-05-05 12:20 | 43.74517 | -6.08043 | 35033 ft | 498 kts | 206° |
| 2026-05-05 12:20 | 43.68150 | -6.11862 | 35044 ft | 500 kts | 206° |
| 2026-05-05 12:21 | 43.61762 | -6.15684 | 35042 ft | 500 kts | 206° |
| 2026-05-05 12:21 | 43.55361 | -6.19504 | 35024 ft | 500 kts | 206° |
| 2026-05-05 12:22 | 43.48971 | -6.23309 | 35026 ft | 500 kts | 206° |
| 2026-05-05 12:22 | 43.42573 | -6.27110 | 35030 ft | 500 kts | 206° |
| 2026-05-05 12:23 | 43.36189 | -6.30893 | 35036 ft | 500 kts | 206° |
| 2026-05-05 12:23 | 43.29806 | -6.34669 | 35038 ft | 499 kts | 206° |
| 2026-05-05 12:24 | 43.23459 | -6.38414 | 35024 ft | 499 kts | 206° |
| 2026-05-05 12:24 | 43.17033 | -6.42196 | 35037 ft | 499 kts | 206° |
| 2026-05-05 12:25 | 43.10696 | -6.45919 | 35034 ft | 498 kts | 206° |
| 2026-05-05 12:25 | 43.04299 | -6.49669 | 35021 ft | 501 kts | 207° |
| 2026-05-05 12:26 | 42.97892 | -6.53414 | 35027 ft | 500 kts | 207° |
| 2026-05-05 12:26 | 42.91495 | -6.57146 | 35032 ft | 500 kts | 207° |
| 2026-05-05 12:27 | 42.85124 | -6.60854 | 35035 ft | 500 kts | 207° |
| 2026-05-05 12:27 | 42.78725 | -6.64565 | 35031 ft | 500 kts | 207° |
| 2026-05-05 12:28 | 42.72319 | -6.68280 | 35031 ft | 499 kts | 207° |
| 2026-05-05 12:28 | 42.65928 | -6.71977 | 35036 ft | 499 kts | 207° |
| 2026-05-05 12:29 | 42.59532 | -6.75669 | 35035 ft | 499 kts | 207° |
| 2026-05-05 12:29 | 42.53172 | -6.79328 | 35031 ft | 499 kts | 207° |
| 2026-05-05 12:30 | 42.46767 | -6.83005 | 35032 ft | 499 kts | 207° |
| 2026-05-05 12:30 | 42.40358 | -6.86678 | 35013 ft | 501 kts | 207° |
| 2026-05-05 12:31 | 42.33942 | -6.90346 | 35041 ft | 500 kts | 207° |
| 2026-05-05 12:31 | 42.27526 | -6.94007 | 35036 ft | 500 kts | 207° |
| 2026-05-05 12:32 | 42.21108 | -6.97660 | 35032 ft | 500 kts | 207° |
| 2026-05-05 12:32 | 42.14697 | -7.01301 | 35035 ft | 500 kts | 207° |
| 2026-05-05 12:33 | 42.08325 | -7.04910 | 35036 ft | 500 kts | 207° |
| 2026-05-05 12:33 | 42.01918 | -7.08532 | 35031 ft | 500 kts | 207° |
| 2026-05-05 12:34 | 41.95496 | -7.12156 | 35021 ft | 499 kts | 207° |
| 2026-05-05 12:34 | 41.89095 | -7.15758 | 35038 ft | 498 kts | 207° |
| 2026-05-05 12:35 | 41.82700 | -7.19351 | 35037 ft | 498 kts | 207° |
| 2026-05-05 12:35 | 41.76323 | -7.22968 | 35021 ft | 496 kts | 211° |
| 2026-05-05 12:36 | 41.70310 | -7.27416 | 35022 ft | 493 kts | 216° |
| 2026-05-05 12:36 | 41.64421 | -7.32105 | 35030 ft | 492 kts | 217° |
| 2026-05-05 12:37 | 41.58588 | -7.36797 | 35034 ft | 492 kts | 217° |
| 2026-05-05 12:37 | 41.52715 | -7.41495 | 35014 ft | 492 kts | 217° |
| 2026-05-05 12:38 | 41.46844 | -7.46161 | 35041 ft | 490 kts | 217° |
| 2026-05-05 12:38 | 41.40984 | -7.50810 | 35046 ft | 490 kts | 217° |
| 2026-05-05 12:39 | 41.36112 | -7.54666 | 35040 ft | 490 kts | 217° |
| 2026-05-05 12:39 | 41.30249 | -7.59299 | 35026 ft | 490 kts | 217° |
| 2026-05-05 12:40 | 41.24399 | -7.63908 | 35052 ft | 488 kts | 217° |
| 2026-05-05 12:40 | 41.18565 | -7.68496 | 35054 ft | 487 kts | 217° |
| 2026-05-05 12:41 | 41.12720 | -7.73088 | 35054 ft | 488 kts | 217° |
| 2026-05-05 12:41 | 41.06881 | -7.77661 | 35034 ft | 487 kts | 217° |
| 2026-05-05 12:42 | 41.01099 | -7.82177 | 35056 ft | 483 kts | 217° |
| 2026-05-05 12:42 | 40.95319 | -7.86687 | 35054 ft | 482 kts | 217° |
| 2026-05-05 12:43 | 40.89523 | -7.91204 | 35061 ft | 482 kts | 217° |
| 2026-05-05 12:43 | 40.83741 | -7.95700 | 35055 ft | 482 kts | 217° |
| 2026-05-05 12:44 | 40.77981 | -8.00164 | 35061 ft | 479 kts | 217° |
| 2026-05-05 12:44 | 40.72234 | -8.04611 | 35065 ft | 478 kts | 217° |
| 2026-05-05 12:45 | 40.66490 | -8.09049 | 35066 ft | 478 kts | 217° |
| 2026-05-05 12:45 | 40.60779 | -8.13453 | 35055 ft | 478 kts | 217° |
| 2026-05-05 12:46 | 40.55068 | -8.17841 | 35071 ft | 473 kts | 217° |
| 2026-05-05 12:46 | 40.49385 | -8.22204 | 35070 ft | 473 kts | 217° |
| 2026-05-05 12:47 | 40.43702 | -8.26561 | 35076 ft | 473 kts | 217° |
| 2026-05-05 12:47 | 40.38016 | -8.30909 | 35078 ft | 473 kts | 217° |
| 2026-05-05 12:48 | 40.32322 | -8.35255 | 35085 ft | 474 kts | 216° |
| 2026-05-05 12:48 | 40.26623 | -8.39596 | 35088 ft | 473 kts | 216° |
| 2026-05-05 12:49 | 40.20926 | -8.43926 | 35089 ft | 473 kts | 216° |
| 2026-05-05 12:49 | 40.15234 | -8.48245 | 35077 ft | 473 kts | 216° |
| 2026-05-05 12:50 | 40.09586 | -8.52520 | 35090 ft | 471 kts | 216° |
| 2026-05-05 12:50 | 40.03905 | -8.56814 | 35098 ft | 471 kts | 216° |
| 2026-05-05 12:51 | 39.98226 | -8.61098 | 35104 ft | 471 kts | 216° |
| 2026-05-05 12:51 | 39.92549 | -8.65372 | 35092 ft | 471 kts | 216° |
| 2026-05-05 12:52 | 39.86917 | -8.69602 | 35123 ft | 470 kts | 216° |
| 2026-05-05 12:52 | 39.81248 | -8.73854 | 35126 ft | 470 kts | 215° |
| 2026-05-05 12:53 | 39.75581 | -8.78096 | 35127 ft | 470 kts | 215° |
| 2026-05-05 12:53 | 39.69903 | -8.82338 | 35127 ft | 470 kts | 215° |
| 2026-05-05 12:54 | 39.61474 | -8.88614 | 35115 ft | 465 kts | 215° |
| 2026-05-05 12:55 | 39.55860 | -8.92788 | 35113 ft | 465 kts | 215° |
| 2026-05-05 12:55 | 39.50249 | -8.96956 | 35132 ft | 465 kts | 215° |
| 2026-05-05 12:56 | 39.44638 | -9.01114 | 35105 ft | 464 kts | 215° |
| 2026-05-05 12:56 | 39.39039 | -9.05251 | 35108 ft | 463 kts | 215° |
| 2026-05-05 12:57 | 39.33433 | -9.09387 | 35113 ft | 463 kts | 215° |
| 2026-05-05 12:57 | 39.27831 | -9.13514 | 35115 ft | 463 kts | 215° |
| 2026-05-05 12:58 | 39.22231 | -9.17632 | 35114 ft | 463 kts | 215° |
| 2026-05-05 12:58 | 39.16645 | -9.21727 | 35112 ft | 459 kts | 215° |
| 2026-05-05 12:59 | 39.11103 | -9.25784 | 35125 ft | 458 kts | 215° |
| 2026-05-05 12:59 | 39.05559 | -9.29837 | 35126 ft | 458 kts | 215° |
| 2026-05-05 13:00 | 38.97276 | -9.35883 | 35111 ft | 458 kts | 215° |
| 2026-05-05 13:01 | 38.86253 | -9.43896 | 35128 ft | 454 kts | 216° |
| 2026-05-05 13:01 | 38.80755 | -9.47886 | 35127 ft | 454 kts | 215° |
| 2026-05-05 13:02 | 38.75266 | -9.51859 | 35126 ft | 453 kts | 215° |
| 2026-05-05 13:02 | 38.69771 | -9.55830 | 35132 ft | 453 kts | 215° |
| 2026-05-05 13:03 | 38.64316 | -9.59765 | 35126 ft | 453 kts | 215° |
| 2026-05-05 13:03 | 38.58827 | -9.63718 | 35126 ft | 453 kts | 215° |
| 2026-05-05 13:04 | 38.53337 | -9.67665 | 35126 ft | 453 kts | 215° |
| 2026-05-05 13:04 | 38.47842 | -9.71608 | 35114 ft | 452 kts | 214° |
| 2026-05-05 13:05 | 38.42341 | -9.75548 | 35136 ft | 454 kts | 214° |
| 2026-05-05 13:05 | 38.36827 | -9.79490 | 35138 ft | 454 kts | 214° |
| 2026-05-05 13:06 | 38.31344 | -9.83404 | 35130 ft | 454 kts | 214° |
| 2026-05-05 13:06 | 38.25829 | -9.87333 | 35143 ft | 455 kts | 214° |
| 2026-05-05 13:07 | 38.20300 | -9.91266 | 35142 ft | 455 kts | 214° |
| 2026-05-05 13:07 | 38.14768 | -9.95193 | 35139 ft | 455 kts | 214° |
| 2026-05-05 13:08 | 38.09232 | -9.99117 | 35140 ft | 455 kts | 214° |
| 2026-05-05 13:08 | 38.03707 | -10.03025 | 35140 ft | 455 kts | 214° |
| 2026-05-05 13:09 | 37.98171 | -10.06935 | 35142 ft | 455 kts | 214° |
| 2026-05-05 13:09 | 37.92672 | -10.10812 | 35144 ft | 455 kts | 214° |
| 2026-05-05 13:10 | 37.87127 | -10.14715 | 35149 ft | 455 kts | 214° |
| 2026-05-05 13:10 | 37.81594 | -10.18602 | 35149 ft | 455 kts | 214° |
| 2026-05-05 13:11 | 37.76044 | -10.22495 | 35147 ft | 455 kts | 214° |
| 2026-05-05 13:11 | 37.70493 | -10.26383 | 35145 ft | 456 kts | 213° |
| 2026-05-05 13:12 | 37.64977 | -10.30238 | 35152 ft | 456 kts | 213° |
| 2026-05-05 13:12 | 37.59416 | -10.34117 | 35151 ft | 456 kts | 213° |
| 2026-05-05 13:13 | 37.53840 | -10.38001 | 35152 ft | 457 kts | 213° |
| 2026-05-05 13:13 | 37.48277 | -10.41870 | 35133 ft | 457 kts | 213° |
| 2026-05-05 13:14 | 37.42724 | -10.45726 | 35157 ft | 459 kts | 213° |
| 2026-05-05 13:14 | 37.37123 | -10.49607 | 35157 ft | 459 kts | 213° |
| 2026-05-05 13:15 | 37.31520 | -10.53482 | 35155 ft | 459 kts | 213° |
| 2026-05-05 13:15 | 37.25908 | -10.57357 | 35158 ft | 459 kts | 213° |
| 2026-05-05 13:16 | 37.20332 | -10.61203 | 35156 ft | 461 kts | 212° |
| 2026-05-05 13:16 | 37.14709 | -10.65073 | 35158 ft | 462 kts | 212° |
| 2026-05-05 13:17 | 37.09070 | -10.68946 | 35158 ft | 462 kts | 212° |
| 2026-05-05 13:17 | 37.03431 | -10.72814 | 35158 ft | 462 kts | 212° |
| 2026-05-05 13:18 | 36.97792 | -10.76675 | 35142 ft | 462 kts | 212° |
| 2026-05-05 13:18 | 36.92143 | -10.80537 | 35162 ft | 462 kts | 212° |
| 2026-05-05 13:19 | 36.86525 | -10.84371 | 35159 ft | 462 kts | 212° |
| 2026-05-05 13:19 | 36.80872 | -10.88222 | 35162 ft | 462 kts | 212° |
| 2026-05-05 13:20 | 36.75218 | -10.92067 | 35164 ft | 462 kts | 212° |
| 2026-05-05 13:20 | 36.69558 | -10.95909 | 35162 ft | 463 kts | 212° |
| 2026-05-05 13:21 | 36.63925 | -10.99728 | 35162 ft | 464 kts | 212° |
| 2026-05-05 13:21 | 36.58253 | -11.03566 | 35165 ft | 464 kts | 212° |
| 2026-05-05 13:22 | 36.52580 | -11.07398 | 35165 ft | 464 kts | 212° |
| 2026-05-05 13:22 | 36.46903 | -11.11226 | 35149 ft | 464 kts | 212° |
| 2026-05-05 13:23 | 36.41233 | -11.15043 | 35162 ft | 463 kts | 212° |
| 2026-05-05 13:23 | 36.35559 | -11.18857 | 35162 ft | 463 kts | 212° |
| 2026-05-05 13:24 | 36.29880 | -11.22668 | 35162 ft | 463 kts | 212° |
| 2026-05-05 13:24 | 36.24210 | -11.26466 | 35162 ft | 463 kts | 212° |
| 2026-05-05 13:25 | 36.18529 | -11.30266 | 35165 ft | 463 kts | 212° |
| 2026-05-05 13:25 | 36.12893 | -11.34028 | 35166 ft | 463 kts | 212° |
| 2026-05-05 13:26 | 36.07215 | -11.37812 | 35164 ft | 463 kts | 212° |
| 2026-05-05 13:26 | 36.02460 | -11.40977 | 35164 ft | 463 kts | 212° |
| 2026-05-05 13:27 | 35.96821 | -11.44725 | 35161 ft | 463 kts | 212° |
| 2026-05-05 13:27 | 35.91093 | -11.48407 | 35161 ft | 465 kts | 210° |
| 2026-05-05 13:28 | 35.85299 | -11.51980 | 35160 ft | 466 kts | 210° |
| 2026-05-05 13:28 | 35.79500 | -11.55559 | 35159 ft | 466 kts | 210° |
| 2026-05-05 13:29 | 35.73710 | -11.59152 | 35159 ft | 465 kts | 210° |
| 2026-05-05 13:29 | 35.67930 | -11.62745 | 35144 ft | 465 kts | 210° |
| 2026-05-05 13:30 | 35.62171 | -11.66323 | 35159 ft | 467 kts | 210° |
| 2026-05-05 13:30 | 35.56357 | -11.69925 | 35160 ft | 467 kts | 210° |
| 2026-05-05 13:31 | 35.50549 | -11.73517 | 35157 ft | 467 kts | 210° |
| 2026-05-05 13:31 | 35.44741 | -11.77103 | 35159 ft | 467 kts | 209° |
| 2026-05-05 13:32 | 35.38931 | -11.80685 | 35159 ft | 467 kts | 210° |
| 2026-05-05 13:32 | 35.33115 | -11.84265 | 35160 ft | 467 kts | 209° |
| 2026-05-05 13:33 | 35.27302 | -11.87838 | 35159 ft | 467 kts | 209° |
| 2026-05-05 13:33 | 35.21490 | -11.91404 | 35159 ft | 467 kts | 209° |
| 2026-05-05 13:34 | 35.15675 | -11.94966 | 35137 ft | 467 kts | 209° |
| 2026-05-05 13:34 | 35.09893 | -11.98503 | 35162 ft | 468 kts | 209° |
| 2026-05-05 13:35 | 35.04054 | -12.02068 | 35154 ft | 468 kts | 209° |
| 2026-05-05 13:35 | 34.98229 | -12.05618 | 35162 ft | 468 kts | 209° |
| 2026-05-05 13:36 | 34.92390 | -12.09173 | 35155 ft | 469 kts | 209° |
| 2026-05-05 13:36 | 34.86544 | -12.12725 | 35157 ft | 470 kts | 209° |
| 2026-05-05 13:37 | 34.80728 | -12.16254 | 35152 ft | 470 kts | 209° |
| 2026-05-05 13:37 | 34.74868 | -12.19803 | 35151 ft | 470 kts | 209° |
| 2026-05-05 13:38 | 34.69004 | -12.23349 | 35154 ft | 470 kts | 209° |
| 2026-05-05 13:38 | 34.63146 | -12.26887 | 35154 ft | 470 kts | 209° |
| 2026-05-05 13:39 | 34.57271 | -12.30429 | 35152 ft | 472 kts | 209° |
| 2026-05-05 13:39 | 34.51415 | -12.33954 | 35152 ft | 473 kts | 209° |
| 2026-05-05 13:40 | 34.45518 | -12.37497 | 35153 ft | 472 kts | 209° |
| 2026-05-05 13:40 | 34.39624 | -12.41033 | 35145 ft | 472 kts | 209° |
| 2026-05-05 13:41 | 34.33720 | -12.44570 | 35139 ft | 473 kts | 209° |
| 2026-05-05 13:41 | 34.27839 | -12.48088 | 35149 ft | 475 kts | 209° |
| 2026-05-05 13:42 | 34.21917 | -12.51624 | 35149 ft | 475 kts | 208° |
| 2026-05-05 13:42 | 34.15991 | -12.55157 | 35146 ft | 475 kts | 208° |
| 2026-05-05 13:43 | 34.10053 | -12.58692 | 35143 ft | 475 kts | 208° |
| 2026-05-05 13:43 | 34.04159 | -12.62196 | 35143 ft | 475 kts | 208° |
| 2026-05-05 13:44 | 33.98214 | -12.65724 | 35144 ft | 476 kts | 208° |
| 2026-05-05 13:44 | 33.92268 | -12.69246 | 35142 ft | 476 kts | 208° |
| 2026-05-05 13:45 | 33.86323 | -12.72763 | 35143 ft | 476 kts | 208° |
| 2026-05-05 13:45 | 33.80407 | -12.76257 | 35134 ft | 476 kts | 208° |
| 2026-05-05 13:46 | 33.74456 | -12.79768 | 35131 ft | 476 kts | 208° |
| 2026-05-05 13:46 | 33.68509 | -12.83270 | 35147 ft | 476 kts | 208° |
| 2026-05-05 13:47 | 33.62557 | -12.86768 | 35130 ft | 476 kts | 208° |
| 2026-05-05 13:47 | 33.56608 | -12.90260 | 35131 ft | 476 kts | 208° |
| 2026-05-05 13:48 | 33.50657 | -12.93748 | 35143 ft | 475 kts | 208° |
| 2026-05-05 13:48 | 33.44727 | -12.97218 | 35142 ft | 474 kts | 208° |
| 2026-05-05 13:49 | 33.38799 | -13.00682 | 35142 ft | 474 kts | 208° |
| 2026-05-05 13:49 | 33.32905 | -13.04121 | 35142 ft | 474 kts | 208° |
| 2026-05-05 13:50 | 33.26975 | -13.07575 | 35141 ft | 474 kts | 208° |
| 2026-05-05 13:50 | 33.21040 | -13.11027 | 35136 ft | 475 kts | 208° |
| 2026-05-05 13:51 | 33.15102 | -13.14480 | 35138 ft | 475 kts | 207° |
| 2026-05-05 13:51 | 33.09144 | -13.17940 | 35140 ft | 476 kts | 207° |
| 2026-05-05 13:52 | 33.03178 | -13.21389 | 35144 ft | 476 kts | 207° |
| 2026-05-05 13:52 | 32.97255 | -13.24811 | 35138 ft | 476 kts | 207° |
| 2026-05-05 13:53 | 32.91290 | -13.28252 | 35136 ft | 476 kts | 207° |
| 2026-05-05 13:53 | 32.85323 | -13.31692 | 35136 ft | 476 kts | 207° |
| 2026-05-05 13:54 | 32.79354 | -13.35128 | 35138 ft | 476 kts | 207° |
| 2026-05-05 13:54 | 32.73389 | -13.38556 | 35135 ft | 476 kts | 207° |
| 2026-05-05 13:55 | 32.67418 | -13.41982 | 35135 ft | 476 kts | 207° |
| 2026-05-05 13:55 | 32.61452 | -13.45400 | 35135 ft | 476 kts | 207° |
| 2026-05-05 13:56 | 32.55526 | -13.48790 | 35135 ft | 476 kts | 207° |
| 2026-05-05 13:56 | 32.49565 | -13.52195 | 35130 ft | 474 kts | 208° |
| 2026-05-05 13:57 | 32.43620 | -13.55586 | 35129 ft | 474 kts | 208° |
| 2026-05-05 13:57 | 32.37677 | -13.58970 | 35129 ft | 471 kts | 208° |
| 2026-05-05 13:58 | 32.31810 | -13.62307 | 35126 ft | 470 kts | 208° |
| 2026-05-05 13:58 | 32.25911 | -13.65658 | 35126 ft | 470 kts | 208° |
| 2026-05-05 13:59 | 32.17059 | -13.70677 | 35121 ft | 470 kts | 208° |
| 2026-05-05 14:00 | 32.09221 | -13.75109 | 35121 ft | 466 kts | 209° |
| 2026-05-05 14:00 | 32.02399 | -13.78961 | 35120 ft | 464 kts | 209° |
| 2026-05-05 14:01 | 31.96610 | -13.82226 | 35119 ft | 464 kts | 209° |
| 2026-05-05 14:01 | 31.90784 | -13.85508 | 35116 ft | 464 kts | 208° |
| 2026-05-05 14:02 | 31.84936 | -13.88797 | 35099 ft | 468 kts | 208° |
| 2026-05-05 14:02 | 31.79094 | -13.92073 | 35110 ft | 461 kts | 209° |
| 2026-05-05 14:03 | 31.73316 | -13.95311 | 35109 ft | 459 kts | 209° |
| 2026-05-05 14:03 | 31.67555 | -13.98539 | 35113 ft | 459 kts | 209° |
| 2026-05-05 14:04 | 31.61790 | -14.01764 | 35111 ft | 459 kts | 209° |
| 2026-05-05 14:04 | 31.56026 | -14.04982 | 35101 ft | 458 kts | 210° |
| 2026-05-05 14:05 | 31.50356 | -14.08138 | 35103 ft | 449 kts | 210° |
| 2026-05-05 14:05 | 31.44727 | -14.11272 | 35104 ft | 447 kts | 210° |
| 2026-05-05 14:06 | 31.39102 | -14.14404 | 35100 ft | 447 kts | 210° |
| 2026-05-05 14:06 | 31.33481 | -14.17528 | 35099 ft | 447 kts | 210° |
| 2026-05-05 14:07 | 31.27892 | -14.20628 | 35102 ft | 447 kts | 210° |
| 2026-05-05 14:07 | 31.22305 | -14.23717 | 35101 ft | 440 kts | 211° |
| 2026-05-05 14:08 | 31.16782 | -14.26772 | 35100 ft | 438 kts | 211° |
| 2026-05-05 14:08 | 31.11296 | -14.29806 | 35100 ft | 438 kts | 211° |
| 2026-05-05 14:09 | 31.05784 | -14.32849 | 35096 ft | 438 kts | 211° |
| 2026-05-05 14:09 | 31.00261 | -14.35893 | 35094 ft | 438 kts | 211° |
| 2026-05-05 14:10 | 30.94756 | -14.38919 | 35096 ft | 433 kts | 212° |
| 2026-05-05 14:10 | 30.89321 | -14.41904 | 35094 ft | 430 kts | 212° |
| 2026-05-05 14:11 | 30.83991 | -14.44946 | 35091 ft | 429 kts | 213° |
| 2026-05-05 14:11 | 30.78667 | -14.48066 | 35091 ft | 429 kts | 213° |
| 2026-05-05 14:12 | 30.73330 | -14.51175 | 35088 ft | 429 kts | 213° |
| 2026-05-05 14:12 | 30.67991 | -14.54260 | 35073 ft | 427 kts | 213° |
| 2026-05-05 14:13 | 30.62699 | -14.57303 | 35086 ft | 422 kts | 213° |
| 2026-05-05 14:13 | 30.57422 | -14.60343 | 35087 ft | 423 kts | 213° |
| 2026-05-05 14:14 | 30.52144 | -14.63381 | 35086 ft | 424 kts | 213° |
| 2026-05-05 14:14 | 30.46891 | -14.66396 | 35086 ft | 424 kts | 213° |
| 2026-05-05 14:15 | 30.41594 | -14.69433 | 35084 ft | 424 kts | 213° |
| 2026-05-05 14:15 | 30.37213 | -14.71940 | 35081 ft | 420 kts | 213° |
| 2026-05-05 14:16 | 30.32007 | -14.74913 | 35080 ft | 415 kts | 213° |
| 2026-05-05 14:16 | 30.26828 | -14.77875 | 35081 ft | 415 kts | 213° |
| 2026-05-05 14:17 | 30.21640 | -14.80840 | 35081 ft | 415 kts | 213° |
| 2026-05-05 14:17 | 30.16457 | -14.83797 | 35080 ft | 415 kts | 213° |
| 2026-05-05 14:18 | 30.11270 | -14.86750 | 35080 ft | 415 kts | 213° |
| 2026-05-05 14:18 | 30.06095 | -14.89691 | 35079 ft | 412 kts | 214° |
| 2026-05-05 14:19 | 30.00957 | -14.92610 | 35074 ft | 411 kts | 214° |
| 2026-05-05 14:19 | 29.95861 | -14.95505 | 35074 ft | 412 kts | 213° |
| 2026-05-05 14:20 | 29.90709 | -14.98427 | 35073 ft | 412 kts | 213° |
| 2026-05-05 14:20 | 29.85571 | -15.01336 | 35071 ft | 412 kts | 213° |
| 2026-05-05 14:21 | 29.80418 | -15.04250 | 35071 ft | 412 kts | 213° |
| 2026-05-05 14:21 | 29.75269 | -15.07158 | 35087 ft | 412 kts | 213° |
| 2026-05-05 14:22 | 29.70125 | -15.10060 | 35075 ft | 412 kts | 213° |
| 2026-05-05 14:22 | 29.64970 | -15.12965 | 35067 ft | 412 kts | 213° |
| 2026-05-05 14:23 | 29.59859 | -15.15843 | 35065 ft | 412 kts | 213° |
| 2026-05-05 14:23 | 29.54709 | -15.18739 | 35084 ft | 412 kts | 213° |
| 2026-05-05 14:24 | 29.49555 | -15.21632 | 35059 ft | 412 kts | 214° |
| 2026-05-05 14:24 | 29.44414 | -15.24514 | 35068 ft | 411 kts | 214° |
| 2026-05-05 14:25 | 29.39279 | -15.27392 | 35068 ft | 411 kts | 214° |
| 2026-05-05 14:25 | 29.34142 | -15.30269 | 35068 ft | 411 kts | 214° |
| 2026-05-05 14:26 | 29.29001 | -15.33143 | 35064 ft | 411 kts | 214° |
| 2026-05-05 14:26 | 29.23865 | -15.36012 | 35064 ft | 411 kts | 214° |
| 2026-05-05 14:27 | 29.18731 | -15.38876 | 35059 ft | 411 kts | 213° |
| 2026-05-05 14:27 | 29.13589 | -15.41741 | 35060 ft | 411 kts | 213° |
| 2026-05-05 14:28 | 29.08478 | -15.44586 | 35065 ft | 411 kts | 213° |
| 2026-05-05 14:28 | 29.03339 | -15.47443 | 35063 ft | 411 kts | 213° |
| 2026-05-05 14:29 | 28.98191 | -15.50302 | 35065 ft | 411 kts | 213° |
| 2026-05-05 14:29 | 28.93049 | -15.53154 | 35066 ft | 411 kts | 213° |
| 2026-05-05 14:30 | 28.87905 | -15.56006 | 35062 ft | 411 kts | 213° |
| 2026-05-05 14:30 | 28.82763 | -15.58852 | 35063 ft | 411 kts | 213° |
| 2026-05-05 14:31 | 28.77613 | -15.61699 | 35058 ft | 411 kts | 213° |
| 2026-05-05 14:31 | 28.72498 | -15.64524 | 35065 ft | 411 kts | 213° |
| 2026-05-05 14:32 | 28.67340 | -15.67370 | 35047 ft | 411 kts | 213° |
| 2026-05-05 14:32 | 28.62202 | -15.70201 | 35043 ft | 411 kts | 213° |
| 2026-05-05 14:33 | 28.57057 | -15.73035 | 35048 ft | 411 kts | 213° |
| 2026-05-05 14:33 | 28.51906 | -15.75867 | 35053 ft | 411 kts | 213° |
| 2026-05-05 14:34 | 28.46753 | -15.78697 | 35055 ft | 411 kts | 213° |
| 2026-05-05 14:34 | 28.41594 | -15.81527 | 35055 ft | 411 kts | 213° |
| 2026-05-05 14:35 | 28.36461 | -15.84341 | 35051 ft | 411 kts | 213° |
| 2026-05-05 14:35 | 28.31301 | -15.87166 | 35050 ft | 412 kts | 213° |
| 2026-05-05 14:36 | 28.26136 | -15.89991 | 35051 ft | 412 kts | 212° |
| 2026-05-05 14:36 | 28.20964 | -15.92817 | 35050 ft | 413 kts | 212° |
| 2026-05-05 14:37 | 28.15789 | -15.95641 | 35045 ft | 413 kts | 212° |
| 2026-05-05 14:37 | 28.10612 | -15.98462 | 35045 ft | 413 kts | 212° |
| 2026-05-05 14:38 | 28.05466 | -16.01265 | 35041 ft | 413 kts | 212° |
| 2026-05-05 14:38 | 28.00288 | -16.04082 | 35016 ft | 413 kts | 212° |
| 2026-05-05 14:39 | 27.95105 | -16.06899 | 35042 ft | 413 kts | 212° |
| 2026-05-05 14:39 | 27.89910 | -16.09719 | 35042 ft | 414 kts | 212° |
| 2026-05-05 14:40 | 27.84717 | -16.12535 | 35042 ft | 414 kts | 212° |
| 2026-05-05 14:40 | 27.79524 | -16.15347 | 35037 ft | 414 kts | 212° |
| 2026-05-05 14:41 | 27.74331 | -16.18156 | 35037 ft | 414 kts | 212° |
| 2026-05-05 14:41 | 27.69136 | -16.20965 | 35007 ft | 414 kts | 212° |
| 2026-05-05 14:42 | 27.63932 | -16.23776 | 35040 ft | 415 kts | 212° |
| 2026-05-05 14:42 | 27.58737 | -16.26576 | 35043 ft | 416 kts | 212° |
| 2026-05-05 14:43 | 27.53520 | -16.29385 | 35040 ft | 416 kts | 212° |
| 2026-05-05 14:43 | 27.48297 | -16.32195 | 35041 ft | 416 kts | 212° |
| 2026-05-05 14:44 | 27.43071 | -16.35004 | 35059 ft | 416 kts | 212° |
| 2026-05-05 14:44 | 27.37855 | -16.37804 | 35007 ft | 415 kts | 212° |
| 2026-05-05 14:45 | 27.32620 | -16.40614 | 35025 ft | 417 kts | 212° |
| 2026-05-05 14:45 | 27.27379 | -16.43423 | 35043 ft | 417 kts | 212° |
| 2026-05-05 14:46 | 27.22164 | -16.46213 | 35043 ft | 417 kts | 212° |
| 2026-05-05 14:46 | 27.16914 | -16.49020 | 35022 ft | 417 kts | 212° |
| 2026-05-05 14:47 | 27.11670 | -16.51821 | 35022 ft | 418 kts | 212° |
| 2026-05-05 14:47 | 27.06417 | -16.54624 | 35018 ft | 418 kts | 212° |
| 2026-05-05 14:48 | 27.01160 | -16.57427 | 35032 ft | 419 kts | 212° |
| 2026-05-05 14:48 | 26.95887 | -16.60234 | 35032 ft | 419 kts | 212° |
| 2026-05-05 14:49 | 26.90610 | -16.63040 | 35031 ft | 419 kts | 212° |
| 2026-05-05 14:49 | 26.85339 | -16.65840 | 35032 ft | 419 kts | 212° |
| 2026-05-05 14:50 | 26.80064 | -16.68641 | 35029 ft | 419 kts | 212° |
| 2026-05-05 14:50 | 26.74828 | -16.71418 | 35028 ft | 419 kts | 212° |
| 2026-05-05 14:51 | 26.69548 | -16.74215 | 35024 ft | 419 kts | 212° |
| 2026-05-05 14:51 | 26.64276 | -16.77005 | 35026 ft | 419 kts | 212° |
| 2026-05-05 14:52 | 26.59001 | -16.79793 | 35026 ft | 419 kts | 212° |
| 2026-05-05 14:52 | 26.53732 | -16.82576 | 35021 ft | 419 kts | 212° |
| 2026-05-05 14:53 | 26.48460 | -16.85357 | 35021 ft | 419 kts | 211° |
| 2026-05-05 14:53 | 26.43184 | -16.88138 | 35015 ft | 420 kts | 211° |
| 2026-05-05 14:54 | 26.37886 | -16.90928 | 35021 ft | 421 kts | 211° |
| 2026-05-05 14:54 | 26.32620 | -16.93698 | 35020 ft | 421 kts | 211° |
| 2026-05-05 14:55 | 26.27316 | -16.96484 | 35020 ft | 421 kts | 211° |
| 2026-05-05 14:55 | 26.22009 | -16.99269 | 35020 ft | 421 kts | 211° |
| 2026-05-05 14:56 | 26.16699 | -17.02053 | 35018 ft | 421 kts | 211° |
| 2026-05-05 14:56 | 26.11434 | -17.04812 | 35014 ft | 422 kts | 211° |
| 2026-05-05 14:57 | 26.06119 | -17.07595 | 35020 ft | 423 kts | 211° |
| 2026-05-05 14:57 | 26.00791 | -17.10380 | 35020 ft | 423 kts | 211° |
| 2026-05-05 14:58 | 25.95467 | -17.13160 | 35020 ft | 423 kts | 211° |
| 2026-05-05 14:58 | 25.90139 | -17.15940 | 35018 ft | 423 kts | 211° |
| 2026-05-05 14:59 | 25.84801 | -17.18722 | 35020 ft | 423 kts | 211° |
| 2026-05-05 14:59 | 25.79508 | -17.21479 | 35029 ft | 424 kts | 211° |
| 2026-05-05 15:00 | 25.75029 | -17.23809 | 35022 ft | 424 kts | 211° |
| 2026-05-05 15:00 | 25.69717 | -17.26570 | 35015 ft | 424 kts | 211° |
| 2026-05-05 15:01 | 25.63483 | -17.29805 | 35009 ft | 424 kts | 211° |
| 2026-05-05 15:01 | 25.59033 | -17.32113 | 35008 ft | 424 kts | 211° |
| 2026-05-05 15:02 | 25.53682 | -17.34886 | 35007 ft | 424 kts | 211° |
| 2026-05-05 15:02 | 25.48330 | -17.37657 | 35010 ft | 425 kts | 211° |
| 2026-05-05 15:03 | 25.42957 | -17.40436 | 35022 ft | 426 kts | 211° |
| 2026-05-05 15:03 | 25.37587 | -17.43210 | 35013 ft | 426 kts | 211° |
| 2026-05-05 15:04 | 25.32242 | -17.45969 | 35014 ft | 426 kts | 211° |
| 2026-05-05 15:04 | 25.26854 | -17.48747 | 35010 ft | 426 kts | 211° |
| 2026-05-05 15:05 | 25.18784 | -17.52903 | 34978 ft | 426 kts | 211° |
| 2026-05-05 15:06 | 25.13419 | -17.55663 | 35008 ft | 428 kts | 211° |
| 2026-05-05 15:06 | 25.08018 | -17.58439 | 35007 ft | 428 kts | 211° |
| 2026-05-05 15:07 | 25.02617 | -17.61211 | 35012 ft | 428 kts | 211° |
| 2026-05-05 15:07 | 24.99966 | -17.62691 | 35276 ft | 422 kts | 216° |
| 2026-05-05 15:07 | 24.97462 | -17.64329 | 35725 ft | 416 kts | 216° |
| 2026-05-05 15:07 | 24.94997 | -17.65988 | 35980 ft | 415 kts | 217° |
| 2026-05-05 15:08 | 24.92535 | -17.67678 | 35998 ft | 418 kts | 217° |
| 2026-05-05 15:08 | 24.87607 | -17.71092 | 36002 ft | 417 kts | 217° |
| 2026-05-05 15:09 | 24.82720 | -17.74477 | 36006 ft | 419 kts | 217° |
| 2026-05-05 15:09 | 24.77777 | -17.77887 | 36001 ft | 419 kts | 217° |
| 2026-05-05 15:10 | 24.72823 | -17.81296 | 36001 ft | 419 kts | 217° |
| 2026-05-05 15:10 | 24.67870 | -17.84700 | 36001 ft | 419 kts | 217° |
| 2026-05-05 15:11 | 24.62916 | -17.88102 | 35998 ft | 419 kts | 217° |
| 2026-05-05 15:11 | 24.57961 | -17.91502 | 36002 ft | 419 kts | 217° |
| 2026-05-05 15:12 | 24.53041 | -17.94875 | 35987 ft | 420 kts | 217° |
| 2026-05-05 15:12 | 24.48079 | -17.98275 | 35999 ft | 420 kts | 217° |
| 2026-05-05 15:13 | 24.43117 | -18.01670 | 36001 ft | 420 kts | 217° |
| 2026-05-05 15:13 | 24.38153 | -18.05063 | 36001 ft | 420 kts | 217° |
| 2026-05-05 15:14 | 24.33182 | -18.08459 | 36001 ft | 420 kts | 217° |
| 2026-05-05 15:14 | 24.28217 | -18.11847 | 36001 ft | 420 kts | 217° |
| 2026-05-05 15:15 | 24.23275 | -18.15216 | 35996 ft | 421 kts | 217° |
| 2026-05-05 15:15 | 24.18301 | -18.18603 | 36000 ft | 421 kts | 217° |
| 2026-05-05 15:16 | 24.13325 | -18.21990 | 35993 ft | 421 kts | 217° |
| 2026-05-05 15:16 | 24.08352 | -18.25371 | 35994 ft | 421 kts | 217° |
| 2026-05-05 15:17 | 24.03371 | -18.28753 | 35994 ft | 421 kts | 217° |
| 2026-05-05 15:17 | 23.98397 | -18.32128 | 35993 ft | 421 kts | 217° |
| 2026-05-05 15:18 | 23.93423 | -18.35501 | 35992 ft | 421 kts | 217° |
| 2026-05-05 15:18 | 23.88443 | -18.38874 | 35989 ft | 421 kts | 217° |
| 2026-05-05 15:19 | 23.83470 | -18.42239 | 35980 ft | 420 kts | 217° |
| 2026-05-05 15:19 | 23.78493 | -18.45603 | 35992 ft | 420 kts | 217° |
| 2026-05-05 15:20 | 23.73522 | -18.48961 | 35994 ft | 420 kts | 217° |
| 2026-05-05 15:20 | 23.68573 | -18.52301 | 35992 ft | 420 kts | 217° |
| 2026-05-05 15:21 | 23.63599 | -18.55655 | 35989 ft | 420 kts | 217° |
| 2026-05-05 15:21 | 23.58622 | -18.59008 | 35987 ft | 420 kts | 217° |
| 2026-05-05 15:22 | 23.53646 | -18.62357 | 35986 ft | 420 kts | 217° |
| 2026-05-05 15:22 | 23.48688 | -18.65690 | 35987 ft | 420 kts | 217° |
| 2026-05-05 15:23 | 23.43716 | -18.69031 | 35989 ft | 420 kts | 217° |
| 2026-05-05 15:23 | 23.38738 | -18.72372 | 35988 ft | 420 kts | 217° |
| 2026-05-05 15:24 | 23.33750 | -18.75717 | 35984 ft | 420 kts | 217° |
| 2026-05-05 15:24 | 23.28772 | -18.79053 | 35984 ft | 420 kts | 217° |
| 2026-05-05 15:25 | 23.23797 | -18.82383 | 35988 ft | 420 kts | 217° |
| 2026-05-05 15:25 | 23.18812 | -18.85717 | 35988 ft | 420 kts | 217° |
| 2026-05-05 15:26 | 23.13865 | -18.89022 | 35985 ft | 420 kts | 217° |
| 2026-05-05 15:26 | 23.08885 | -18.92347 | 35986 ft | 420 kts | 217° |
| 2026-05-05 15:27 | 23.03909 | -18.95667 | 35986 ft | 420 kts | 217° |
| 2026-05-05 15:27 | 22.98931 | -18.98985 | 35989 ft | 420 kts | 217° |
| 2026-05-05 15:28 | 22.93954 | -19.02299 | 35986 ft | 420 kts | 217° |
| 2026-05-05 15:28 | 22.88978 | -19.05610 | 35989 ft | 420 kts | 217° |
| 2026-05-05 15:29 | 22.84007 | -19.08913 | 35985 ft | 418 kts | 217° |
| 2026-05-05 15:29 | 22.79048 | -19.12207 | 35996 ft | 418 kts | 217° |
| 2026-05-05 15:30 | 22.74080 | -19.15505 | 35987 ft | 419 kts | 217° |
| 2026-05-05 15:30 | 22.69102 | -19.18805 | 35988 ft | 419 kts | 217° |
| 2026-05-05 15:31 | 22.64156 | -19.22082 | 35986 ft | 419 kts | 217° |
| 2026-05-05 15:31 | 22.59178 | -19.25376 | 35985 ft | 419 kts | 217° |
| 2026-05-05 15:32 | 22.54199 | -19.28669 | 35960 ft | 419 kts | 217° |
| 2026-05-05 15:32 | 22.49228 | -19.31952 | 35991 ft | 418 kts | 217° |
| 2026-05-05 15:33 | 22.44288 | -19.35214 | 35983 ft | 418 kts | 217° |
| 2026-05-05 15:33 | 22.39322 | -19.38490 | 35981 ft | 418 kts | 217° |
| 2026-05-05 15:34 | 22.34359 | -19.41761 | 35983 ft | 418 kts | 217° |
| 2026-05-05 15:34 | 22.29399 | -19.45027 | 35983 ft | 418 kts | 217° |
| 2026-05-05 15:35 | 22.24431 | -19.48297 | 35987 ft | 418 kts | 217° |
| 2026-05-05 15:35 | 22.19454 | -19.51568 | 35987 ft | 419 kts | 217° |
| 2026-05-05 15:36 | 22.14489 | -19.54828 | 35986 ft | 418 kts | 217° |
| 2026-05-05 15:36 | 22.09524 | -19.58087 | 35985 ft | 418 kts | 217° |
| 2026-05-05 15:37 | 22.04591 | -19.61323 | 35982 ft | 418 kts | 217° |
| 2026-05-05 15:37 | 21.99620 | -19.64579 | 35982 ft | 418 kts | 217° |
| 2026-05-05 15:38 | 21.94648 | -19.67833 | 35982 ft | 418 kts | 217° |
| 2026-05-05 15:38 | 21.89675 | -19.71086 | 35982 ft | 418 kts | 217° |
| 2026-05-05 15:39 | 21.84704 | -19.74334 | 35979 ft | 418 kts | 217° |
| 2026-05-05 15:39 | 21.79765 | -19.77558 | 35980 ft | 418 kts | 217° |
| 2026-05-05 15:40 | 21.74792 | -19.80802 | 35984 ft | 418 kts | 217° |
| 2026-05-05 15:40 | 21.69817 | -19.84045 | 35979 ft | 418 kts | 217° |
| 2026-05-05 15:41 | 21.64847 | -19.87283 | 35980 ft | 418 kts | 217° |
| 2026-05-05 15:41 | 21.59869 | -19.90522 | 35980 ft | 418 kts | 217° |
| 2026-05-05 15:42 | 21.54924 | -19.93738 | 35980 ft | 418 kts | 217° |
| 2026-05-05 15:42 | 21.49944 | -19.96974 | 35979 ft | 418 kts | 217° |
| 2026-05-05 15:43 | 21.44963 | -20.00210 | 35979 ft | 418 kts | 217° |
| 2026-05-05 15:43 | 21.39978 | -20.03444 | 35979 ft | 418 kts | 217° |
| 2026-05-05 15:44 | 21.34989 | -20.06678 | 35980 ft | 418 kts | 217° |
| 2026-05-05 15:44 | 21.30035 | -20.09886 | 35979 ft | 418 kts | 217° |
| 2026-05-05 15:45 | 21.25043 | -20.13117 | 35979 ft | 418 kts | 217° |
| 2026-05-05 15:45 | 21.20061 | -20.16339 | 35954 ft | 418 kts | 217° |
| 2026-05-05 15:46 | 21.15066 | -20.19568 | 35977 ft | 420 kts | 217° |
| 2026-05-05 15:46 | 21.10057 | -20.22800 | 35979 ft | 420 kts | 217° |
| 2026-05-05 15:47 | 21.05044 | -20.26032 | 35979 ft | 420 kts | 217° |
| 2026-05-05 15:47 | 21.00035 | -20.29260 | 35980 ft | 420 kts | 217° |
| 2026-05-05 15:48 | 20.95872 | -20.31942 | 35981 ft | 420 kts | 217° |
| 2026-05-05 15:48 | 20.90051 | -20.35689 | 35979 ft | 420 kts | 217° |
| 2026-05-05 15:49 | 20.85045 | -20.38908 | 35974 ft | 421 kts | 216° |
| 2026-05-05 15:49 | 20.80828 | -20.41619 | 35981 ft | 422 kts | 216° |
| 2026-05-05 15:50 | 20.75824 | -20.44832 | 35982 ft | 422 kts | 216° |
| 2026-05-05 15:50 | 20.70778 | -20.48069 | 35985 ft | 422 kts | 216° |
| 2026-05-05 15:51 | 20.65742 | -20.51297 | 35981 ft | 422 kts | 216° |
| 2026-05-05 15:51 | 20.60699 | -20.54527 | 35983 ft | 422 kts | 216° |
| 2026-05-05 15:52 | 20.55657 | -20.57755 | 35981 ft | 422 kts | 216° |
| 2026-05-05 15:52 | 20.50618 | -20.60978 | 35973 ft | 423 kts | 216° |
| 2026-05-05 15:53 | 20.45596 | -20.64189 | 35985 ft | 424 kts | 216° |
| 2026-05-05 15:53 | 20.40533 | -20.67422 | 35985 ft | 424 kts | 216° |
| 2026-05-05 15:54 | 20.35464 | -20.70657 | 35984 ft | 424 kts | 216° |
| 2026-05-05 15:54 | 20.30396 | -20.73886 | 35985 ft | 424 kts | 216° |
| 2026-05-05 15:55 | 20.25324 | -20.77107 | 35988 ft | 424 kts | 216° |
| 2026-05-05 15:55 | 20.20252 | -20.80326 | 35988 ft | 424 kts | 216° |
| 2026-05-05 15:56 | 20.15210 | -20.83526 | 35988 ft | 424 kts | 216° |
| 2026-05-05 15:56 | 20.10136 | -20.86744 | 35988 ft | 424 kts | 216° |
| 2026-05-05 15:57 | 20.05060 | -20.89962 | 35992 ft | 424 kts | 216° |
| 2026-05-05 15:57 | 19.99984 | -20.93176 | 35991 ft | 424 kts | 216° |
| 2026-05-05 15:58 | 19.94910 | -20.96387 | 35989 ft | 424 kts | 216° |
| 2026-05-05 15:58 | 19.89874 | -20.99572 | 35991 ft | 424 kts | 216° |
| 2026-05-05 15:59 | 19.84794 | -21.02782 | 35992 ft | 424 kts | 216° |
| 2026-05-05 15:59 | 19.79710 | -21.05992 | 35997 ft | 425 kts | 216° |
| 2026-05-05 16:00 | 19.74618 | -21.09205 | 35996 ft | 426 kts | 216° |
| 2026-05-05 16:00 | 19.69521 | -21.12418 | 35991 ft | 426 kts | 216° |
| 2026-05-05 16:01 | 19.64453 | -21.15611 | 36000 ft | 426 kts | 216° |
| 2026-05-05 16:01 | 19.59354 | -21.18821 | 35998 ft | 426 kts | 216° |
| 2026-05-05 16:02 | 19.54254 | -21.22029 | 35982 ft | 426 kts | 216° |
| 2026-05-05 16:02 | 19.49157 | -21.25233 | 35979 ft | 426 kts | 216° |
| 2026-05-05 16:03 | 19.44055 | -21.28437 | 35993 ft | 426 kts | 216° |
| 2026-05-05 16:03 | 19.38957 | -21.31637 | 35998 ft | 425 kts | 216° |
| 2026-05-05 16:04 | 19.33862 | -21.34832 | 36000 ft | 425 kts | 216° |
| 2026-05-05 16:04 | 19.28767 | -21.38026 | 36000 ft | 425 kts | 216° |
| 2026-05-05 16:05 | 19.23672 | -21.41217 | 35998 ft | 425 kts | 216° |
| 2026-05-05 16:05 | 19.18606 | -21.44387 | 35998 ft | 425 kts | 216° |
| 2026-05-05 16:06 | 19.13516 | -21.47569 | 35998 ft | 424 kts | 216° |
| 2026-05-05 16:06 | 19.08431 | -21.50747 | 35996 ft | 424 kts | 216° |
| 2026-05-05 16:07 | 19.03339 | -21.53928 | 36000 ft | 425 kts | 216° |
| 2026-05-05 16:07 | 18.98249 | -21.57104 | 35999 ft | 425 kts | 216° |
| 2026-05-05 16:08 | 18.93196 | -21.60255 | 35998 ft | 425 kts | 216° |
| 2026-05-05 16:08 | 18.88106 | -21.63426 | 35999 ft | 425 kts | 216° |
| 2026-05-05 16:09 | 18.83016 | -21.66596 | 35999 ft | 425 kts | 216° |
| 2026-05-05 16:09 | 18.77929 | -21.69759 | 36005 ft | 423 kts | 216° |
| 2026-05-05 16:10 | 18.72870 | -21.72904 | 36008 ft | 422 kts | 216° |
| 2026-05-05 16:10 | 18.67808 | -21.76050 | 35990 ft | 422 kts | 216° |
| 2026-05-05 16:11 | 18.62784 | -21.79171 | 35992 ft | 422 kts | 216° |
| 2026-05-05 16:12 | 18.52655 | -21.85455 | 35996 ft | 423 kts | 216° |
| 2026-05-05 16:13 | 18.39955 | -21.93320 | 36002 ft | 424 kts | 216° |
| 2026-05-05 16:13 | 18.34893 | -21.96451 | 36001 ft | 424 kts | 216° |
| 2026-05-05 16:14 | 18.24713 | -22.02741 | 36002 ft | 424 kts | 216° |
| 2026-05-05 16:15 | 18.14529 | -22.09025 | 36005 ft | 424 kts | 216° |
| 2026-05-05 16:16 | 18.04360 | -22.15293 | 36000 ft | 425 kts | 216° |
| 2026-05-05 16:17 | 17.96699 | -22.20008 | 36003 ft | 425 kts | 216° |
| 2026-05-05 16:18 | 17.89037 | -22.24718 | 36003 ft | 425 kts | 216° |
| 2026-05-05 16:19 | 17.81401 | -22.29409 | 36001 ft | 425 kts | 216° |
| 2026-05-05 16:19 | 17.73722 | -22.34123 | 36004 ft | 428 kts | 216° |
| 2026-05-05 16:20 | 17.63408 | -22.40444 | 35998 ft | 429 kts | 216° |
| 2026-05-05 16:22 | 17.50548 | -22.48313 | 36001 ft | 429 kts | 216° |
| 2026-05-05 16:23 | 17.40240 | -22.54613 | 35997 ft | 430 kts | 216° |
| 2026-05-05 16:23 | 17.32477 | -22.59352 | 35999 ft | 431 kts | 216° |
| 2026-05-05 16:24 | 17.27296 | -22.62511 | 35999 ft | 431 kts | 216° |
| 2026-05-05 16:25 | 17.19522 | -22.67248 | 35998 ft | 431 kts | 216° |
| 2026-05-05 16:25 | 17.11783 | -22.71959 | 36001 ft | 431 kts | 216° |
| 2026-05-05 16:26 | 17.01393 | -22.78279 | 35997 ft | 433 kts | 215° |
| 2026-05-05 16:27 | 16.96174 | -22.81448 | 36004 ft | 434 kts | 215° |
| 2026-05-05 16:27 | 16.90956 | -22.84617 | 35998 ft | 434 kts | 215° |
| 2026-05-05 16:28 | 16.85737 | -22.87782 | 35994 ft | 434 kts | 215° |
| 2026-05-05 16:28 | 16.80519 | -22.90945 | 35994 ft | 434 kts | 215° |
| 2026-05-05 16:29 | 16.75301 | -22.94108 | 35992 ft | 434 kts | 215° |
| 2026-05-05 16:29 | 16.70067 | -22.97248 | 35993 ft | 434 kts | 214° |
| 2026-05-05 16:30 | 16.64822 | -23.00298 | 35993 ft | 434 kts | 214° |
| 2026-05-05 16:30 | 16.59544 | -23.03357 | 35993 ft | 434 kts | 214° |
| 2026-05-05 16:31 | 16.54266 | -23.06429 | 35997 ft | 434 kts | 214° |
| 2026-05-05 16:31 | 16.48994 | -23.09507 | 35989 ft | 434 kts | 214° |
| 2026-05-05 16:32 | 16.43722 | -23.12579 | 35993 ft | 433 kts | 214° |
| 2026-05-05 16:32 | 16.38448 | -23.15650 | 35978 ft | 433 kts | 214° |
| 2026-05-05 16:33 | 16.33204 | -23.18705 | 35994 ft | 436 kts | 214° |
| 2026-05-05 16:33 | 16.27909 | -23.21785 | 35993 ft | 436 kts | 214° |
| 2026-05-05 16:34 | 16.22608 | -23.24867 | 35993 ft | 436 kts | 214° |
| 2026-05-05 16:34 | 16.17308 | -23.27946 | 35993 ft | 436 kts | 214° |
| 2026-05-05 16:35 | 16.12011 | -23.31022 | 35993 ft | 436 kts | 214° |
| 2026-05-05 16:35 | 16.06714 | -23.34097 | 35996 ft | 436 kts | 214° |
| 2026-05-05 16:36 | 16.02304 | -23.36655 | 35992 ft | 437 kts | 214° |
| 2026-05-05 16:36 | 15.96989 | -23.39737 | 35995 ft | 438 kts | 214° |
| 2026-05-05 16:37 | 15.90803 | -23.43321 | 35995 ft | 438 kts | 214° |
| 2026-05-05 16:37 | 15.86373 | -23.45885 | 35996 ft | 438 kts | 214° |
| 2026-05-05 16:38 | 15.81050 | -23.48965 | 35990 ft | 438 kts | 214° |
| 2026-05-05 16:38 | 15.75727 | -23.52043 | 35990 ft | 438 kts | 214° |
| 2026-05-05 16:39 | 15.70405 | -23.55120 | 35991 ft | 438 kts | 214° |
| 2026-05-05 16:39 | 15.65067 | -23.58204 | 35995 ft | 440 kts | 214° |
| 2026-05-05 16:40 | 15.59715 | -23.61294 | 35992 ft | 440 kts | 214° |
| 2026-05-05 16:40 | 15.54384 | -23.64368 | 35992 ft | 440 kts | 214° |
| 2026-05-05 16:41 | 15.49027 | -23.67456 | 35985 ft | 440 kts | 214° |
| 2026-05-05 16:41 | 15.43667 | -23.70545 | 35990 ft | 440 kts | 214° |
| 2026-05-05 16:42 | 15.38308 | -23.73631 | 35987 ft | 440 kts | 214° |
| 2026-05-05 16:42 | 15.32945 | -23.76718 | 35988 ft | 441 kts | 214° |
| 2026-05-05 16:43 | 15.27565 | -23.79813 | 35987 ft | 443 kts | 214° |
| 2026-05-05 16:43 | 15.22178 | -23.82909 | 35984 ft | 443 kts | 214° |
| 2026-05-05 16:44 | 15.16824 | -23.85985 | 35987 ft | 443 kts | 214° |
| 2026-05-05 16:44 | 15.11427 | -23.89083 | 35986 ft | 443 kts | 214° |
| 2026-05-05 16:45 | 15.06037 | -23.92176 | 35987 ft | 443 kts | 214° |
| 2026-05-05 16:45 | 15.00650 | -23.95266 | 35977 ft | 443 kts | 214° |
| 2026-05-05 16:46 | 14.95244 | -23.98366 | 35985 ft | 445 kts | 214° |
| 2026-05-05 16:46 | 14.89848 | -24.01456 | 35987 ft | 445 kts | 214° |
| 2026-05-05 16:47 | 14.84430 | -24.04558 | 35984 ft | 445 kts | 214° |
| 2026-05-05 16:47 | 14.79005 | -24.07661 | 35986 ft | 445 kts | 214° |
| 2026-05-05 16:48 | 14.73582 | -24.10762 | 35984 ft | 445 kts | 214° |
| 2026-05-05 16:48 | 14.68158 | -24.13862 | 35982 ft | 445 kts | 214° |
| 2026-05-05 16:49 | 14.62733 | -24.16962 | 35981 ft | 446 kts | 213° |
| 2026-05-05 16:49 | 14.57293 | -24.20068 | 35980 ft | 447 kts | 213° |
| 2026-05-05 16:50 | 14.51842 | -24.23177 | 35979 ft | 447 kts | 213° |
| 2026-05-05 16:50 | 14.46393 | -24.26284 | 35980 ft | 448 kts | 213° |
| 2026-05-05 16:51 | 14.40941 | -24.29391 | 35982 ft | 448 kts | 213° |
| 2026-05-05 16:51 | 14.35480 | -24.32501 | 35982 ft | 448 kts | 213° |
| 2026-05-05 16:52 | 14.30024 | -24.35607 | 35967 ft | 448 kts | 213° |
| 2026-05-05 16:52 | 14.24588 | -24.38702 | 35978 ft | 450 kts | 213° |
| 2026-05-05 16:53 | 14.19108 | -24.41817 | 35978 ft | 450 kts | 213° |
| 2026-05-05 16:53 | 14.13620 | -24.44935 | 35977 ft | 450 kts | 213° |
| 2026-05-05 16:54 | 14.08139 | -24.48048 | 35978 ft | 450 kts | 213° |
| 2026-05-05 16:54 | 14.02657 | -24.51160 | 35975 ft | 450 kts | 213° |
| 2026-05-05 16:55 | 13.97173 | -24.54271 | 35977 ft | 450 kts | 213° |
| 2026-05-05 16:55 | 13.91722 | -24.57363 | 35988 ft | 451 kts | 213° |
| 2026-05-05 16:56 | 13.86211 | -24.60487 | 35971 ft | 452 kts | 213° |
| 2026-05-05 16:56 | 13.80696 | -24.63612 | 35969 ft | 452 kts | 213° |
| 2026-05-05 16:57 | 13.75184 | -24.66733 | 35981 ft | 452 kts | 213° |
| 2026-05-05 16:57 | 13.69675 | -24.69851 | 35968 ft | 452 kts | 213° |
| 2026-05-05 16:58 | 13.64166 | -24.72967 | 35965 ft | 452 kts | 213° |
| 2026-05-05 16:58 | 13.58694 | -24.76061 | 35969 ft | 452 kts | 213° |
| 2026-05-05 16:59 | 13.53157 | -24.79191 | 35971 ft | 454 kts | 213° |
| 2026-05-05 16:59 | 13.47607 | -24.82326 | 35972 ft | 455 kts | 213° |
| 2026-05-05 17:00 | 13.42065 | -24.85454 | 35974 ft | 454 kts | 213° |
| 2026-05-05 17:00 | 13.36519 | -24.88583 | 35975 ft | 454 kts | 213° |
| 2026-05-05 17:01 | 13.31007 | -24.91691 | 35970 ft | 454 kts | 213° |
| 2026-05-05 17:01 | 13.25464 | -24.94816 | 35968 ft | 455 kts | 213° |
| 2026-05-05 17:02 | 13.19910 | -24.97944 | 35969 ft | 455 kts | 213° |
| 2026-05-05 17:02 | 13.14356 | -25.01071 | 35968 ft | 455 kts | 213° |
| 2026-05-05 17:03 | 13.08812 | -25.04191 | 35965 ft | 454 kts | 213° |
| 2026-05-05 17:03 | 13.03265 | -25.07311 | 35966 ft | 454 kts | 213° |
| 2026-05-05 17:04 | 12.97752 | -25.10410 | 35966 ft | 454 kts | 213° |
| 2026-05-05 17:04 | 12.92210 | -25.13524 | 35965 ft | 454 kts | 213° |
| 2026-05-05 17:05 | 12.86657 | -25.16644 | 35969 ft | 456 kts | 213° |
| 2026-05-05 17:05 | 12.81084 | -25.19772 | 35969 ft | 457 kts | 213° |
| 2026-05-05 17:06 | 12.75506 | -25.22901 | 35971 ft | 457 kts | 213° |
| 2026-05-05 17:06 | 12.69929 | -25.26027 | 35972 ft | 457 kts | 213° |
| 2026-05-05 17:07 | 12.64385 | -25.29135 | 35968 ft | 457 kts | 213° |
| 2026-05-05 17:07 | 12.58803 | -25.32261 | 35968 ft | 457 kts | 213° |
| 2026-05-05 17:08 | 12.53220 | -25.35388 | 35973 ft | 459 kts | 213° |
| 2026-05-05 17:08 | 12.47610 | -25.38528 | 35973 ft | 460 kts | 213° |
| 2026-05-05 17:09 | 12.41991 | -25.41670 | 35977 ft | 460 kts | 213° |
| 2026-05-05 17:09 | 12.36378 | -25.44808 | 35958 ft | 460 kts | 213° |
| 2026-05-05 17:10 | 12.30792 | -25.47929 | 35975 ft | 460 kts | 213° |
| 2026-05-05 17:10 | 12.25172 | -25.51068 | 35974 ft | 460 kts | 213° |
| 2026-05-05 17:11 | 12.19554 | -25.54205 | 35969 ft | 461 kts | 213° |
| 2026-05-05 17:11 | 12.13920 | -25.57349 | 35970 ft | 462 kts | 213° |
| 2026-05-05 17:12 | 12.08279 | -25.60494 | 35971 ft | 462 kts | 213° |
| 2026-05-05 17:12 | 12.02630 | -25.63642 | 35970 ft | 462 kts | 213° |
| 2026-05-05 17:13 | 11.96981 | -25.66789 | 35968 ft | 462 kts | 213° |
| 2026-05-05 17:13 | 11.91378 | -25.69909 | 35972 ft | 462 kts | 213° |
| 2026-05-05 17:14 | 11.85738 | -25.73049 | 35968 ft | 462 kts | 212° |
| 2026-05-05 17:14 | 11.80069 | -25.76204 | 35969 ft | 464 kts | 212° |
| 2026-05-05 17:15 | 11.74426 | -25.79342 | 35972 ft | 464 kts | 212° |
| 2026-05-05 17:15 | 11.68754 | -25.82494 | 35973 ft | 464 kts | 212° |
| 2026-05-05 17:16 | 11.63084 | -25.85644 | 35970 ft | 464 kts | 212° |
| 2026-05-05 17:16 | 11.57416 | -25.88791 | 35967 ft | 464 kts | 212° |
| 2026-05-05 17:17 | 11.51749 | -25.91937 | 35956 ft | 464 kts | 212° |
| 2026-05-05 17:17 | 11.46057 | -25.95096 | 35969 ft | 466 kts | 212° |
| 2026-05-05 17:18 | 11.40405 | -25.98230 | 35971 ft | 466 kts | 212° |
| 2026-05-05 17:18 | 11.34701 | -26.01391 | 35971 ft | 466 kts | 212° |
| 2026-05-05 17:19 | 11.29010 | -26.04543 | 35969 ft | 466 kts | 212° |
| 2026-05-05 17:19 | 11.23319 | -26.07695 | 35969 ft | 466 kts | 212° |
| 2026-05-05 17:20 | 11.17617 | -26.10851 | 35969 ft | 466 kts | 212° |
| 2026-05-05 17:20 | 11.11956 | -26.13984 | 35969 ft | 467 kts | 212° |
| 2026-05-05 17:21 | 11.06238 | -26.17146 | 35968 ft | 467 kts | 212° |
| 2026-05-05 17:22 | 10.97662 | -26.21886 | 35970 ft | 467 kts | 212° |
| 2026-05-05 17:22 | 10.91948 | -26.25043 | 35972 ft | 467 kts | 212° |
| 2026-05-05 17:23 | 10.86229 | -26.28200 | 35972 ft | 467 kts | 212° |
| 2026-05-05 17:23 | 10.81485 | -26.30819 | 35967 ft | 467 kts | 211° |
| 2026-05-05 17:24 | 10.74831 | -26.34490 | 35972 ft | 467 kts | 211° |
| 2026-05-05 17:24 | 10.70076 | -26.37113 | 35971 ft | 467 kts | 211° |
| 2026-05-05 17:25 | 10.64354 | -26.40267 | 35970 ft | 467 kts | 211° |
| 2026-05-05 17:25 | 10.58622 | -26.43425 | 35971 ft | 468 kts | 211° |
| 2026-05-05 17:26 | 10.52900 | -26.46576 | 35970 ft | 468 kts | 211° |
| 2026-05-05 17:26 | 10.47178 | -26.49727 | 35960 ft | 468 kts | 211° |
| 2026-05-05 17:27 | 10.41476 | -26.52865 | 35966 ft | 469 kts | 211° |
| 2026-05-05 17:27 | 10.35717 | -26.56032 | 35971 ft | 470 kts | 211° |
| 2026-05-05 17:28 | 10.29962 | -26.59196 | 35969 ft | 469 kts | 211° |
| 2026-05-05 17:28 | 10.24260 | -26.62330 | 35968 ft | 469 kts | 211° |
| 2026-05-05 17:29 | 10.18525 | -26.65481 | 35968 ft | 469 kts | 211° |
| 2026-05-05 17:29 | 10.12775 | -26.68639 | 35968 ft | 469 kts | 211° |
| 2026-05-05 17:30 | 10.07030 | -26.71793 | 35968 ft | 470 kts | 211° |
| 2026-05-05 17:30 | 10.01268 | -26.74954 | 35969 ft | 470 kts | 211° |
| 2026-05-05 17:31 | 9.95514 | -26.78110 | 35966 ft | 470 kts | 211° |
| 2026-05-05 17:31 | 9.89752 | -26.81269 | 35970 ft | 471 kts | 211° |
| 2026-05-05 17:32 | 9.83987 | -26.84428 | 35966 ft | 471 kts | 211° |
| 2026-05-05 17:32 | 9.78266 | -26.87562 | 35966 ft | 470 kts | 211° |